Time;durP1;ratioP1;P1;durP2;ratioP2;P2;SDS_P1;SDS_P2;PMS_P1;PMS_P2;Temp;Humidity;BMP_temperature;BMP_pressure;BME280_temperature;BME280_humidity;BME280_pressure;Samples;Min_cycle;Max_cycle;Signal;HPM_P1;HPM_P2
2022/04/01 00:00:29;;;;;;;29.40;12.27;;;;;;;8.56;100.00;98255.13;4993863;28;20482;-60
2022/04/01 00:02:54;;;;;;;23.33;12.27;;;;;;;8.34;100.00;98254.53;4993895;28;20502;-60
2022/04/01 00:05:20;;;;;;;27.80;14.00;;;;;;;8.25;100.00;98250.59;4993147;28;20077;-60
2022/04/01 00:07:45;;;;;;;27.17;13.82;;;;;;;8.13;100.00;98255.59;4993854;28;20061;-61
2022/04/01 00:10:11;;;;;;;28.00;13.85;;;;;;;8.17;100.00;98247.41;4993804;28;20026;-61
2022/04/01 00:12:41;;;;;;;26.85;13.80;;;;;;;8.10;100.00;98250.47;4993859;28;20023;-61
2022/04/01 00:15:09;;;;;;;30.25;13.85;;;;;;;8.02;100.00;98249.06;4993572;28;20026;-61
2022/04/01 00:17:35;;;;;;;29.23;14.88;;;;;;;8.01;100.00;98251.78;4993280;28;20249;-61
2022/04/01 00:20:00;;;;;;;26.15;13.88;;;;;;;8.09;100.00;98259.34;4992808;28;20095;-61
2022/04/01 00:22:26;;;;;;;25.65;13.88;;;;;;;8.27;100.00;98253.16;4993457;28;20025;-61
2022/04/01 00:24:51;;;;;;;27.70;14.13;;;;;;;8.39;100.00;98257.81;4993398;28;20030;-61
2022/04/01 00:27:17;;;;;;;31.42;13.68;;;;;;;8.46;100.00;98259.19;4993245;28;20019;-61
2022/04/01 00:29:42;;;;;;;29.75;14.15;;;;;;;8.51;100.00;98262.47;4993402;28;20109;-61
2022/04/01 00:32:07;;;;;;;29.10;14.95;;;;;;;8.49;100.00;98264.34;4992939;28;20018;-61
2022/04/01 00:34:36;;;;;;;29.67;14.85;;;;;;;8.51;100.00;98262.47;4993125;28;20026;-61
2022/04/01 00:37:02;;;;;;;29.90;15.50;;;;;;;8.52;100.00;98264.16;4992984;28;20470;-60
2022/04/01 00:39:30;;;;;;;25.90;14.82;;;;;;;8.48;100.00;98255.56;4993318;28;20037;-60
2022/04/01 00:41:57;;;;;;;32.60;15.23;;;;;;;8.48;100.00;98257.34;4992835;28;20126;-61
2022/04/01 00:44:27;;;;;;;32.05;15.93;;;;;;;8.43;100.00;98254.94;4993157;28;20128;-61
2022/04/01 00:47:02;;;;;;;27.92;14.65;;;;;;;8.43;100.00;98260.22;4992900;28;20062;-61
2022/04/01 00:49:28;;;;;;;28.17;15.57;;;;;;;8.19;100.00;98260.59;4992479;28;20066;-61
2022/04/01 00:51:59;;;;;;;28.42;14.55;;;;;;;8.07;100.00;98257.63;4992430;28;20014;-61
2022/04/01 00:54:24;;;;;;;27.98;14.10;;;;;;;8.09;100.00;98252.25;4992997;28;20390;-61
2022/04/01 00:56:51;;;;;;;28.17;14.38;;;;;;;8.07;100.00;98254.97;4992271;28;20022;-61
2022/04/01 00:59:16;;;;;;;28.60;14.80;;;;;;;8.04;100.00;98247.19;4992885;28;20462;-61
2022/04/01 01:01:47;;;;;;;28.10;14.73;;;;;;;8.00;100.00;98250.94;4992601;28;20073;-61
2022/04/01 01:04:14;;;;;;;26.25;13.73;;;;;;;7.99;100.00;98254.50;4993127;28;20030;-61
2022/04/01 01:06:42;;;;;;;26.42;14.73;;;;;;;7.99;100.00;98253.66;4992495;28;20026;-61
2022/04/01 01:09:08;;;;;;;31.67;15.63;;;;;;;7.93;100.00;98244.25;4992769;28;20108;-61
2022/04/01 01:11:37;;;;;;;30.20;15.00;;;;;;;7.96;100.00;98252.03;4992667;28;20050;-60
2022/04/01 01:14:08;;;;;;;28.17;15.75;;;;;;;7.98;100.00;98252.81;4992610;28;20161;-61
2022/04/01 01:16:34;;;;;;;29.40;15.45;;;;;;;7.89;100.00;98247.97;4988090;28;20019;-61
2022/04/01 01:19:08;;;;;;;30.35;15.38;;;;;;;7.80;100.00;98248.44;4973324;28;20509;-60
2022/04/01 01:21:34;;;;;;;;;;;;;;;7.78;100.00;98250.28;4973426;28;20101;-60
2022/04/01 01:24:05;;;;;;;33.22;15.13;;;;;;;7.75;100.00;98250.44;4973222;28;19993;-61
2022/04/01 01:26:35;;;;;;;30.40;17.10;;;;;;;7.73;100.00;98247.00;4972928;28;20505;-60
2022/04/01 01:29:03;;;;;;;31.30;16.55;;;;;;;7.55;100.00;98247.91;4983527;28;20033;-60
2022/04/01 01:31:29;;;;;;;34.75;17.02;;;;;;;7.57;100.00;98250.50;4992378;28;20029;-60
2022/04/01 01:33:55;;;;;;;33.85;17.90;;;;;;;7.56;100.00;98246.97;4991838;28;20429;-60
2022/04/01 01:36:23;;;;;;;30.45;16.85;;;;;;;7.48;100.00;98246.50;4992182;28;20482;-60
2022/04/01 01:38:48;;;;;;;31.52;18.38;;;;;;;7.45;100.00;98248.44;4992300;28;20022;-60
2022/04/01 01:41:14;;;;;;;33.88;17.90;;;;;;;7.39;100.00;98240.78;4991995;28;20045;-60
2022/04/01 01:43:41;;;;;;;33.72;16.65;;;;;;;7.58;100.00;98241.59;4992067;28;20030;-60
2022/04/01 01:46:07;;;;;;;28.88;16.30;;;;;;;7.80;100.00;98245.78;4992205;28;20015;-60
2022/04/01 01:48:32;;;;;;;32.38;17.60;;;;;;;7.84;100.00;98247.34;4991726;28;20050;-60
2022/04/01 01:56:26;;;;;;;32.83;16.92;;;;;;;7.83;100.00;98242.97;4990981;28;19977;-60
2022/04/01 01:58:51;;;;;;;31.38;16.73;;;;;;;7.81;100.00;98242.19;4992157;28;20030;-60
2022/04/01 02:01:16;;;;;;;32.30;17.48;;;;;;;7.80;100.00;98245.78;4991927;28;20363;-60
2022/04/01 02:03:42;;;;;;;40.13;18.25;;;;;;;7.75;100.00;98237.22;4992172;28;20034;-60
2022/04/01 02:06:07;;;;;;;34.55;17.83;;;;;;;7.67;100.00;98241.16;4991979;28;20027;-60
2022/04/01 02:08:33;;;;;;;38.83;19.40;;;;;;;7.40;100.00;98235.44;4992036;28;20030;-60
2022/04/01 02:10:59;;;;;;;36.45;17.58;;;;;;;7.27;100.00;98244.88;4991466;28;20014;-60
2022/04/01 02:13:27;;;;;;;34.83;19.42;;;;;;;7.40;100.00;98239.84;4991799;28;20018;-60
2022/04/01 02:15:53;;;;;;;33.90;16.38;;;;;;;7.59;100.00;98243.34;4992060;28;20037;-60
2022/04/01 02:18:20;;;;;;;29.90;16.90;;;;;;;7.65;100.00;98243.91;4992089;28;20034;-60
2022/04/01 02:20:46;;;;;;;35.08;17.80;;;;;;;7.68;100.00;98241.09;4990141;28;20569;-60
2022/04/01 02:23:12;;;;;;;40.30;19.67;;;;;;;7.63;100.00;98239.59;4991236;28;20036;-60
2022/04/01 02:25:40;;;;;;;33.75;16.58;;;;;;;7.66;100.00;98237.66;4991459;28;20497;-60
2022/04/01 02:28:06;;;;;;;34.05;18.90;;;;;;;7.61;100.00;98229.09;4991976;28;20037;-60
2022/04/01 02:30:32;;;;;;;35.10;17.90;;;;;;;7.71;100.00;98235.63;4991882;28;20401;-60
2022/04/01 02:32:57;;;;;;;37.55;18.17;;;;;;;7.74;100.00;98246.06;4991726;28;20037;-61
2022/04/01 02:35:23;;;;;;;33.63;18.42;;;;;;;7.72;100.00;98242.66;4991684;28;20156;-61
2022/04/01 02:37:48;;;;;;;33.78;17.33;;;;;;;7.75;100.00;98254.88;4991890;28;20026;-61
2022/04/01 02:40:14;;;;;;;33.15;17.45;;;;;;;7.68;100.00;98246.38;4991617;28;20030;-61
2022/04/01 02:42:40;;;;;;;39.60;17.35;;;;;;;7.59;100.00;98243.34;4991933;28;20034;-60
2022/04/01 02:45:06;;;;;;;41.30;16.70;;;;;;;7.58;100.00;98244.25;4993328;28;20034;-60
2022/04/01 02:47:31;;;;;;;35.70;17.15;;;;;;;7.50;100.00;98247.28;4994984;28;20037;-61
2022/04/01 02:49:57;;;;;;;33.38;17.08;;;;;;;7.42;100.00;98252.09;4993687;28;20049;-61
2022/04/01 02:52:22;;;;;;;36.33;17.67;;;;;;;7.41;100.00;98249.53;4995611;28;20026;-60
2022/04/01 02:54:48;;;;;;;37.58;18.50;;;;;;;7.40;100.00;98247.78;4994512;28;20022;-60
2022/04/01 02:57:13;;;;;;;32.53;18.15;;;;;;;7.38;100.00;98244.38;4993875;28;20068;-60
2022/04/01 02:59:39;;;;;;;31.10;16.80;;;;;;;7.40;100.00;98248.66;4994607;28;20035;-60
2022/04/01 03:02:04;;;;;;;35.28;17.90;;;;;;;7.31;100.00;98241.19;4994936;28;20032;-60
2022/04/01 03:04:30;;;;;;;37.30;18.35;;;;;;;7.34;100.00;98251.59;4994901;28;20470;-60
2022/04/01 03:06:55;;;;;;;35.45;17.73;;;;;;;7.09;100.00;98236.97;4994901;28;20085;-60
2022/04/01 03:09:21;;;;;;;38.53;17.58;;;;;;;6.96;100.00;98252.53;4994973;28;20041;-60
2022/04/01 03:11:46;;;;;;;36.63;16.17;;;;;;;6.83;100.00;98247.88;4994885;28;20018;-60
2022/04/01 03:14:12;;;;;;;39.33;19.52;;;;;;;6.83;100.00;98246.09;4994966;28;20480;-60
2022/04/01 03:16:41;;;;;;;37.53;18.05;;;;;;;6.92;100.00;98253.59;4994749;28;20481;-60
2022/04/01 03:19:10;;;;;;;34.30;16.65;;;;;;;7.06;100.00;98256.47;4994261;28;20022;-60
2022/04/01 03:21:38;;;;;;;38.63;17.75;;;;;;;7.10;100.00;98254.56;4994531;28;20038;-60
2022/04/01 03:24:04;;;;;;;39.20;18.92;;;;;;;7.08;100.00;98249.34;4993696;28;20026;-60
2022/04/01 03:26:29;;;;;;;35.45;18.02;;;;;;;7.08;100.00;98262.56;4994674;28;20469;-60
2022/04/01 03:28:55;;;;;;;40.28;19.02;;;;;;;7.11;100.00;98262.41;4994610;28;20033;-60
2022/04/01 03:31:20;;;;;;;40.47;19.13;;;;;;;7.14;100.00;98259.63;4994465;28;20026;-60
2022/04/01 03:33:46;;;;;;;39.63;21.45;;;;;;;7.14;100.00;98251.69;4994168;28;20053;-60
2022/04/01 03:36:13;;;;;;;38.03;18.80;;;;;;;7.16;100.00;98265.69;4994299;28;20031;-61
2022/04/01 03:38:39;;;;;;;36.72;19.05;;;;;;;7.06;100.00;98253.84;4994257;28;20030;-61
2022/04/01 03:41:05;;;;;;;40.00;18.83;;;;;;;7.11;100.00;98262.41;4993894;28;20030;-61
2022/04/01 03:43:34;;;;;;;38.88;18.17;;;;;;;7.14;100.00;98258.75;4994194;28;20490;-60
2022/04/01 03:46:06;;;;;;;36.53;18.88;;;;;;;7.19;100.00;98260.25;4994098;28;20026;-60
2022/04/01 03:48:39;;;;;;;38.80;18.17;;;;;;;7.18;100.00;98266.47;4993862;28;20026;-61
2022/04/01 03:51:05;;;;;;;34.85;19.65;;;;;;;7.23;100.00;98256.53;4994199;28;20030;-60
2022/04/01 03:53:34;;;;;;;36.13;18.55;;;;;;;7.30;100.00;98267.66;4994213;28;20790;-60
2022/04/01 03:56:02;;;;;;;36.33;19.60;;;;;;;7.26;100.00;98264.34;4993589;28;20026;-60
2022/04/01 03:58:29;;;;;;;36.60;18.20;;;;;;;7.29;100.00;98263.31;4993912;28;20038;-60
2022/04/01 04:01:03;;;;;;;36.00;19.70;;;;;;;7.23;100.00;98260.97;4993476;28;20541;-60
2022/04/01 04:03:31;;;;;;;40.20;19.40;;;;;;;7.27;100.00;98263.41;4993095;28;20027;-60
2022/04/01 04:05:58;;;;;;;34.63;19.25;;;;;;;7.32;100.00;98261.38;4992726;28;20037;-60
2022/04/01 04:08:24;;;;;;;33.80;17.17;;;;;;;7.28;100.00;98265.09;4993709;28;20030;-60
2022/04/01 04:10:51;;;;;;;35.80;18.27;;;;;;;7.28;100.00;98265.09;4993633;28;20022;-60
2022/04/01 04:13:19;;;;;;;37.00;19.40;;;;;;;7.25;100.00;98275.81;4993595;28;20474;-60
2022/04/01 04:16:11;;;;;;;40.60;19.27;;;;;;;7.16;100.00;98278.03;4993524;28;20474;-60
2022/04/01 04:19:02;;;;;;;32.78;18.60;;;;;;;7.17;100.00;98275.31;4992908;28;20331;-60
2022/04/01 04:21:29;;;;;;;32.13;18.00;;;;;;;7.14;100.00;98278.13;4965243;28;20038;-60
2022/04/01 04:23:59;;;;;;;35.28;17.08;;;;;;;7.09;100.00;98269.53;4993438;28;20201;-60
2022/04/01 04:26:35;;;;;;;38.15;17.73;;;;;;;7.08;100.00;98277.56;4992944;28;20425;-60
2022/04/01 04:29:19;;;;;;;34.08;17.75;;;;;;;7.09;100.00;98284.53;4992085;28;20026;-60
2022/04/01 04:32:06;;;;;;;33.08;17.00;;;;;;;7.11;100.00;98278.28;4993382;28;20018;-60
2022/04/01 04:34:37;;;;;;;30.90;15.85;;;;;;;7.10;100.00;98287.09;4993194;28;20116;-60
2022/04/01 04:37:08;;;;;;;28.58;15.85;;;;;;;7.07;100.00;98284.59;4993314;28;20034;-60
2022/04/01 04:39:36;;;;;;;28.10;16.40;;;;;;;7.00;100.00;98285.81;4993059;28;20109;-60
2022/04/01 04:42:03;;;;;;;29.38;16.27;;;;;;;6.98;100.00;98287.69;4992770;28;20080;-60
2022/04/01 04:44:30;;;;;;;30.88;16.10;;;;;;;6.97;100.00;98285.97;4992743;28;20038;-60
2022/04/01 04:46:57;;;;;;;33.35;17.25;;;;;;;7.05;100.00;98288.28;4992936;28;20026;-60
2022/04/01 04:49:25;;;;;;;33.20;17.08;;;;;;;7.11;100.00;98288.84;4992669;28;20188;-60
2022/04/01 04:51:52;;;;;;;33.05;17.02;;;;;;;7.15;100.00;98300.13;4992797;28;20026;-60
2022/04/01 04:54:18;;;;;;;32.53;17.30;;;;;;;7.13;100.00;98299.34;4992758;28;20030;-60
2022/04/01 04:56:44;;;;;;;29.77;15.82;;;;;;;7.17;100.00;98298.25;4992945;28;20517;-60
2022/04/01 04:59:12;;;;;;;34.00;14.85;;;;;;;7.20;100.00;98298.97;4992619;28;20166;-60
2022/04/01 05:01:56;;;;;;;26.13;15.15;;;;;;;7.25;100.00;98301.44;4992753;28;20089;-60
2022/04/01 05:04:44;;;;;;;33.33;15.95;;;;;;;7.22;100.00;98307.69;4992753;28;20030;-60
2022/04/01 05:07:47;;;;;;;33.25;15.63;;;;;;;7.23;100.00;98316.50;4992186;28;20053;-60
2022/04/01 05:10:21;;;;;;;27.23;15.18;;;;;;;7.30;100.00;98316.13;4992511;28;20517;-60
2022/04/01 05:13:03;;;;;;;37.00;16.00;;;;;;;7.26;100.00;98296.06;4992623;28;20041;-60
2022/04/01 05:15:31;;;;;;;50.97;18.80;;;;;;;7.41;100.00;98324.41;4992483;28;20390;-60
2022/04/01 05:18:12;;;;;;;31.75;15.02;;;;;;;7.49;100.00;98326.72;4992363;28;20026;-60
2022/04/01 05:20:44;;;;;;;26.38;13.70;;;;;;;7.55;100.00;98327.28;4992250;28;20579;-60
2022/04/01 05:23:31;;;;;;;27.50;13.77;;;;;;;7.56;100.00;98328.97;4992531;28;20105;-60
2022/04/01 05:26:09;;;;;;;22.83;13.45;;;;;;;7.58;100.00;98336.84;4991964;28;20034;-60
2022/04/01 05:28:46;;;;;;;27.35;13.65;;;;;;;7.62;100.00;98339.31;4992533;28;20040;-60
2022/04/01 05:31:24;;;;;;;28.02;13.45;;;;;;;7.66;100.00;98340.00;4991057;28;20050;-60
2022/04/01 05:34:09;;;;;;;24.63;13.27;;;;;;;7.65;100.00;98344.44;4992627;28;20549;-60
2022/04/01 05:36:37;;;;;;;24.88;13.73;;;;;;;7.66;100.00;98345.31;4991976;28;20026;-60
2022/04/01 05:39:04;;;;;;;29.75;14.35;;;;;;;7.62;100.00;98344.59;4992729;28;20122;-60
2022/04/01 05:41:30;;;;;;;25.48;13.02;;;;;;;7.65;100.00;98354.16;4991999;28;20030;-60
2022/04/01 05:43:57;;;;;;;25.92;13.05;;;;;;;7.62;100.00;98351.66;4992315;28;20034;-60
2022/04/01 05:46:25;;;;;;;25.25;13.30;;;;;;;7.63;100.00;98351.59;4991693;28;20061;-60
2022/04/01 05:48:53;;;;;;;23.27;12.55;;;;;;;7.67;100.00;98355.81;4992196;28;20054;-60
2022/04/01 05:51:19;;;;;;;29.08;12.93;;;;;;;7.76;100.00;98351.84;4991848;28;20035;-60
2022/04/01 05:53:48;;;;;;;23.05;11.93;;;;;;;7.77;100.00;98370.34;4992396;28;20026;-60
2022/04/01 05:56:14;;;;;;;21.48;13.30;;;;;;;7.75;100.00;98371.31;4992188;28;20034;-60
2022/04/01 05:58:42;;;;;;;23.13;11.50;;;;;;;7.72;100.00;98374.13;4991815;28;20100;-60
2022/04/01 06:01:32;;;;;;;25.45;12.93;;;;;;;7.71;100.00;98375.91;4991865;28;20371;-60
2022/04/01 06:04:19;;;;;;;24.48;12.55;;;;;;;7.76;100.00;98373.03;4992147;28;20031;-60
2022/04/01 06:06:47;;;;;;;23.77;11.90;;;;;;;7.74;100.00;98381.03;4991949;28;20081;-60
2022/04/01 06:09:56;;;;;;;28.83;13.07;;;;;;;7.79;100.00;98378.19;4992113;28;20157;-60
2022/04/01 06:12:34;;;;;;;27.10;12.80;;;;;;;7.75;100.00;98377.47;4992135;28;20378;-60
2022/04/01 06:15:26;;;;;;;27.23;13.65;;;;;;;7.73;100.00;98384.63;4991951;28;20061;-60
2022/04/01 06:18:09;;;;;;;23.95;12.40;;;;;;;7.67;100.00;98392.88;4991973;28;20068;-60
2022/04/01 06:20:37;;;;;;;23.67;13.93;;;;;;;7.63;100.00;98388.63;4995469;28;20053;-60
2022/04/01 06:23:12;;;;;;;26.92;12.85;;;;;;;7.57;100.00;98386.28;4995809;28;20031;-60
2022/04/01 06:25:43;;;;;;;24.98;14.05;;;;;;;7.68;100.00;98391.06;4995090;28;20029;-60
2022/04/01 06:28:24;;;;;;;23.10;13.70;;;;;;;7.63;100.00;98396.56;4976285;28;20062;-61
2022/04/01 06:30:52;;;;;;;23.77;12.05;;;;;;;7.61;100.00;98408.16;4974593;28;20026;-61
2022/04/01 06:33:23;;;;;;;19.88;11.18;;;;;;;7.62;100.00;98407.22;4990752;28;20065;-60
2022/04/01 06:36:04;;;;;;;17.08;10.95;;;;;;;7.58;100.00;98414.44;4995397;28;20109;-60
2022/04/01 06:38:40;;;;;;;19.55;11.80;;;;;;;7.47;100.00;98419.38;4995515;28;20019;-60
2022/04/01 06:41:21;;;;;;;20.13;11.05;;;;;;;7.36;100.00;98416.38;4995031;28;20441;-60
2022/04/01 06:43:47;;;;;;;24.00;11.05;;;;;;;7.34;100.00;98417.34;4995594;28;20030;-60
2022/04/01 06:46:13;;;;;;;21.08;11.02;;;;;;;7.23;100.00;98420.47;4995349;28;20429;-60
2022/04/01 06:48:40;;;;;;;18.80;10.93;;;;;;;7.20;100.00;98415.31;4995022;28;20047;-60
2022/04/01 06:51:08;;;;;;;25.08;12.73;;;;;;;7.21;100.00;98419.69;4994731;28;20073;-60
2022/04/01 06:53:36;;;;;;;21.73;12.27;;;;;;;7.29;100.00;98429.91;4994857;28;20036;-60
2022/04/01 06:56:03;;;;;;;24.65;13.70;;;;;;;7.27;100.00;98427.34;4995125;28;20377;-60
2022/04/01 06:58:30;;;;;;;22.42;11.70;;;;;;;7.21;100.00;98421.47;4995115;28;20050;-60
2022/04/01 07:00:56;;;;;;;25.08;11.57;;;;;;;7.35;100.00;98433.16;4994453;28;20042;-60
2022/04/01 07:03:22;;;;;;;24.63;12.32;;;;;;;7.38;100.00;98432.16;4995452;28;20470;-61
2022/04/01 07:05:48;;;;;;;23.67;12.60;;;;;;;7.28;100.00;98434.34;4994805;28;20108;-60
2022/04/01 07:08:16;;;;;;;25.63;13.07;;;;;;;7.26;100.00;98424.78;4995015;28;20030;-60
2022/04/01 07:10:42;;;;;;;22.42;11.85;;;;;;;7.36;100.00;98437.53;4993553;28;20030;-60
2022/04/01 07:13:08;;;;;;;22.88;12.02;;;;;;;7.38;100.00;98434.81;4994801;28;20053;-60
2022/04/01 07:15:34;;;;;;;23.83;13.73;;;;;;;7.41;100.00;98442.59;4994883;28;20023;-60
2022/04/01 07:17:59;;;;;;;22.88;12.95;;;;;;;7.38;100.00;98434.81;4994722;28;20022;-60
2022/04/01 07:20:25;;;;;;;27.83;14.02;;;;;;;7.39;100.00;98441.81;4994345;28;20514;-61
2022/04/01 07:22:53;;;;;;;23.35;13.63;;;;;;;7.39;100.00;98432.09;4994690;28;20030;-60
2022/04/01 07:25:21;;;;;;;23.35;13.30;;;;;;;7.49;100.00;98441.34;4994498;28;20030;-60
2022/04/01 07:27:46;;;;;;;27.48;13.13;;;;;;;7.47;100.00;98432.59;4994342;28;20018;-60
2022/04/01 07:30:12;;;;;;;23.10;12.00;;;;;;;7.52;100.00;98451.78;4993330;28;20057;-61
2022/04/01 07:32:39;;;;;;;24.85;12.43;;;;;;;7.33;100.00;98452.66;4994654;28;20022;-61
2022/04/01 07:35:09;;;;;;;22.08;11.02;;;;;;;7.23;100.00;98461.94;4994412;28;20522;-61
2022/04/01 07:37:35;;;;;;;22.92;11.60;;;;;;;7.11;100.00;98460.69;4994398;28;20034;-61
2022/04/01 07:40:01;;;;;;;23.08;11.98;;;;;;;6.97;100.00;98455.13;4993893;28;20037;-60
2022/04/01 07:42:28;;;;;;;24.27;11.95;;;;;;;7.01;100.00;98464.66;4994239;28;20501;-60
2022/04/01 07:44:54;;;;;;;22.23;10.70;;;;;;;7.05;100.00;98457.44;4994182;28;20137;-60
2022/04/01 07:47:21;;;;;;;21.40;10.63;;;;;;;7.14;100.00;98464.97;4994303;28;20110;-60
2022/04/01 07:49:48;;;;;;;23.80;12.18;;;;;;;7.23;100.00;98468.06;4993992;28;20054;-60
2022/04/01 07:52:14;;;;;;;24.10;12.50;;;;;;;7.26;100.00;98473.25;4993988;28;20018;-60
2022/04/01 07:54:42;;;;;;;22.58;11.73;;;;;;;7.23;100.00;98475.16;4994147;28;20092;-60
2022/04/01 07:57:10;;;;;;;27.08;13.18;;;;;;;7.24;100.00;98468.91;4976580;28;20049;-61
2022/04/01 07:59:36;;;;;;;25.88;11.98;;;;;;;7.12;100.00;98472.97;4994173;28;20516;-61
2022/04/01 08:02:05;;;;;;;23.08;12.60;;;;;;;7.15;100.00;98480.75;4993967;28;20022;-60
2022/04/01 08:04:31;;;;;;;23.85;14.23;;;;;;;7.16;100.00;98478.97;4976069;28;20077;-60
2022/04/01 08:06:57;;;;;;;26.25;13.38;;;;;;;7.21;100.00;98472.56;4993714;28;20026;-60
2022/04/01 08:09:23;;;;;;;23.08;12.15;;;;;;;7.24;100.00;98484.78;4993915;28;20474;-60
2022/04/01 08:11:50;;;;;;;24.02;12.90;;;;;;;7.21;100.00;98485.81;4993776;28;20101;-60
2022/04/01 08:14:17;;;;;;;22.83;11.48;;;;;;;7.10;100.00;98472.16;4993897;28;20193;-60
2022/04/01 08:16:43;;;;;;;23.02;13.25;;;;;;;7.00;99.14;98488.50;4993807;28;20385;-61
2022/04/01 08:19:08;;;;;;;26.13;13.10;;;;;;;6.89;98.99;98494.22;4993372;28;20101;-60
2022/04/01 08:21:34;;;;;;;21.67;11.93;;;;;;;6.78;98.59;98501.75;4993078;28;20122;-60
2022/04/01 08:24:00;;;;;;;25.25;12.93;;;;;;;6.82;100.00;98492.75;4993689;28;20454;-60
2022/04/01 08:26:26;;;;;;;25.40;12.27;;;;;;;6.76;100.00;98487.75;4993390;28;20053;-60
2022/04/01 08:28:51;;;;;;;26.58;13.85;;;;;;;6.97;100.00;98502.69;4993625;28;20056;-60
2022/04/01 08:31:17;;;;;;;25.58;12.73;;;;;;;7.08;100.00;98503.13;4993430;28;20054;-60
2022/04/01 08:33:44;;;;;;;23.45;12.65;;;;;;;7.06;100.00;98512.03;4992610;28;20105;-60
2022/04/01 08:36:10;;;;;;;23.95;11.55;;;;;;;7.11;100.00;98508.28;4992056;28;20018;-60
2022/04/01 08:38:35;;;;;;;24.92;11.88;;;;;;;7.00;100.00;98521.06;4992872;28;20026;-60
2022/04/01 08:41:01;;;;;;;25.45;11.98;;;;;;;7.02;100.00;98521.88;4993101;28;20026;-60
2022/04/01 08:43:29;;;;;;;31.25;13.77;;;;;;;7.08;100.00;98524.28;4992765;28;20034;-60
2022/04/01 08:45:57;;;;;;;26.23;12.23;;;;;;;7.13;100.00;98519.66;4993145;28;20029;-60
2022/04/01 08:48:24;;;;;;;23.60;11.00;;;;;;;7.15;100.00;98523.06;4992835;28;20023;-60
2022/04/01 08:50:50;;;;;;;23.65;12.80;;;;;;;7.19;100.00;98527.31;4993206;28;20026;-60
2022/04/01 08:53:15;;;;;;;24.25;12.57;;;;;;;7.18;100.00;98533.50;4992873;28;20023;-60
2022/04/01 08:55:45;;;;;;;21.45;11.95;;;;;;;7.15;100.00;98525.69;4992648;28;20074;-60
2022/04/01 08:58:11;;;;;;;20.52;11.05;;;;;;;7.19;100.00;98518.50;4992843;28;20034;-60
2022/04/01 09:00:37;;;;;;;23.52;11.80;;;;;;;7.32;100.00;98536.44;4992864;28;20026;-60
2022/04/01 09:03:08;;;;;;;22.38;12.55;;;;;;;7.31;100.00;98540.00;4992649;28;20069;-60
2022/04/01 09:05:34;;;;;;;21.70;11.35;;;;;;;7.39;100.00;98544.97;4992783;28;20041;-60
2022/04/01 09:08:01;;;;;;;22.05;11.90;;;;;;;7.43;100.00;98544.75;4992952;28;20026;-60
2022/04/01 09:10:26;;;;;;;22.63;12.63;;;;;;;7.39;100.00;98548.47;4992696;28;20034;-60
2022/04/01 09:12:52;;;;;;;22.10;11.25;;;;;;;7.33;100.00;98548.72;4992682;28;20026;-60
2022/04/01 09:15:19;;;;;;;19.50;11.60;;;;;;;7.30;100.00;98543.56;4992715;28;20056;-60
2022/04/01 09:17:46;;;;;;;24.83;12.20;;;;;;;7.24;100.00;98553.53;4992750;28;20022;-62
2022/04/01 09:20:14;;;;;;;22.98;11.45;;;;;;;7.23;100.00;98557.13;4993551;28;20042;-60
2022/04/01 09:22:41;;;;;;;23.17;12.65;;;;;;;7.29;100.00;98557.72;4992966;28;20053;-60
2022/04/01 09:25:11;;;;;;;22.98;11.90;;;;;;;7.37;100.00;98554.72;4992489;28;20030;-60
2022/04/01 09:27:51;;;;;;;25.90;13.52;;;;;;;7.38;100.00;98552.03;4992268;28;20526;-60
2022/04/01 09:30:23;;;;;;;24.80;12.20;;;;;;;7.36;100.00;98559.19;4992190;28;20030;-60
2022/04/01 09:32:55;;;;;;;21.55;11.18;;;;;;;7.33;100.00;98554.00;4992389;28;20018;-60
2022/04/01 09:35:24;;;;;;;33.42;13.68;;;;;;;7.36;100.00;98564.47;4992193;28;20033;-60
2022/04/01 09:37:52;;;;;;;22.92;12.20;;;;;;;7.45;100.00;98564.06;4992049;28;20041;-60
2022/04/01 09:40:20;;;;;;;23.35;12.30;;;;;;;7.45;98.19;98566.72;4992103;28;20040;-60
2022/04/01 09:42:48;;;;;;;23.83;12.02;;;;;;;7.41;98.65;98567.75;4992117;28;20841;-60
2022/04/01 09:45:33;;;;;;;23.45;12.07;;;;;;;7.45;98.65;98574.66;4992311;28;20023;-60
2022/04/01 09:48:04;;;;;;;25.42;13.68;;;;;;;7.49;99.01;98570.09;4992432;28;20061;-60
2022/04/01 09:50:34;;;;;;;29.52;14.80;;;;;;;7.53;99.32;98567.22;4992030;28;20120;-60
2022/04/01 09:53:17;;;;;;;23.38;12.65;;;;;;;7.51;99.66;98571.72;4992238;28;20018;-60
2022/04/01 09:55:45;;;;;;;22.23;10.80;;;;;;;7.43;98.94;98573.84;4996418;28;20524;-60
2022/04/01 09:58:11;;;;;;;23.95;11.55;;;;;;;7.45;99.68;98572.00;4995241;28;20033;-60
2022/04/01 10:00:38;;;;;;;23.20;12.52;;;;;;;7.46;99.95;98575.50;4995322;28;20029;-60
2022/04/01 10:03:05;;;;;;;23.02;11.35;;;;;;;7.45;100.00;98569.34;4996221;28;20027;-60
2022/04/01 10:05:31;;;;;;;21.98;11.25;;;;;;;7.43;100.00;98571.19;4996109;28;20528;-60
2022/04/01 10:07:57;;;;;;;22.40;13.63;;;;;;;7.48;100.00;98587.72;4996387;28;20038;-60
2022/04/01 10:10:27;;;;;;;22.63;11.40;;;;;;;7.51;100.00;98584.94;4995867;28;20066;-60
2022/04/01 10:13:01;;;;;;;22.42;12.43;;;;;;;7.60;100.00;98584.56;4995765;28;20034;-60
2022/04/01 10:15:28;;;;;;;;;;;;;;;7.65;100.00;98587.00;4994853;28;20030;-60
2022/04/01 10:17:57;;;;;;;24.05;11.63;;;;;;;7.63;100.00;98581.78;4995914;28;19921;-60
2022/04/01 10:20:37;;;;;;;33.83;17.30;;;;;;;7.64;100.00;98586.13;4995703;28;20652;-60
2022/04/01 10:23:11;;;;;;;26.73;12.50;;;;;;;7.63;100.00;98584.44;4995823;28;20027;-60
2022/04/01 10:26:14;;;;;;;23.48;12.80;;;;;;;7.61;100.00;98591.56;4996121;28;20030;-60
2022/04/01 10:28:43;;;;;;;19.65;10.13;;;;;;;7.61;100.00;98596.88;4897424;29;20146;-60
2022/04/01 10:31:13;;;;;;;21.23;11.68;;;;;;;7.56;100.00;98590.91;4963584;28;20050;-60
2022/04/01 10:33:39;;;;;;;20.23;10.15;;;;;;;7.56;98.86;98593.56;4976281;28;20062;-60
2022/04/01 10:36:31;;;;;;;19.77;10.93;;;;;;;7.59;98.39;98587.28;4976034;28;20054;-60
2022/04/01 10:39:07;;;;;;;21.00;11.18;;;;;;;7.52;98.12;98607.84;4991635;28;20105;-60
2022/04/01 10:41:34;;;;;;;18.33;11.10;;;;;;;7.49;98.43;98605.34;4975956;28;20418;-60
2022/04/01 10:44:01;;;;;;;16.23;10.15;;;;;;;7.26;99.78;98600.16;4978843;28;20033;-60
2022/04/01 10:46:26;;;;;;;19.23;9.98;;;;;;;7.17;100.00;98608.47;4995209;28;20038;-60
2022/04/01 10:52:13;;;;;;;18.75;10.60;;;;;;;7.11;100.00;98608.72;4995315;28;20393;-60
2022/04/01 10:54:43;;;;;;;18.55;10.35;;;;;;;7.04;100.00;98604.59;4993219;28;20061;-60
2022/04/01 10:57:11;;;;;;;21.17;10.20;;;;;;;6.96;98.51;98604.06;4994913;28;20022;-60
2022/04/01 10:59:45;;;;;;;18.15;9.77;;;;;;;6.97;98.71;98613.72;4995346;28;20037;-60
2022/04/01 11:02:15;;;;;;;17.35;9.60;;;;;;;6.89;99.28;98615.81;4995174;28;20045;-60
2022/04/01 11:04:42;;;;;;;14.85;9.38;;;;;;;6.88;98.54;98616.75;4994259;28;20034;-60
2022/04/01 11:07:11;;;;;;;16.58;9.60;;;;;;;7.08;97.34;98615.94;4994553;28;20109;-60
2022/04/01 11:09:59;;;;;;;17.02;9.30;;;;;;;7.19;96.68;98613.69;4995056;28;20030;-60
2022/04/01 11:12:30;;;;;;;17.55;9.48;;;;;;;7.29;96.73;98620.31;4995131;28;20030;-61
2022/04/01 11:15:11;;;;;;;15.10;10.05;;;;;;;7.29;95.73;98621.19;4994967;28;20042;-60
2022/04/01 11:17:37;;;;;;;16.80;9.10;;;;;;;7.28;94.32;98619.44;4994787;28;20489;-60
2022/04/01 11:20:14;;;;;;;18.08;9.60;;;;;;;7.22;94.38;98622.38;4994589;28;20037;-60
2022/04/01 11:22:43;;;;;;;16.73;10.10;;;;;;;7.22;94.15;98627.66;4994643;28;20035;-62
2022/04/01 11:25:13;;;;;;;17.25;9.88;;;;;;;7.27;94.10;98619.53;4994484;28;20030;-62
2022/04/01 11:28:08;;;;;;;16.15;9.90;;;;;;;7.33;93.86;98628.06;4994308;28;20057;-62
2022/04/01 11:30:40;;;;;;;16.00;8.93;;;;;;;7.49;95.05;98623.88;4994412;28;20038;-62
2022/04/01 11:33:13;;;;;;;14.25;9.35;;;;;;;7.55;94.34;98626.25;4994111;28;20057;-62
2022/04/01 11:35:41;;;;;;;14.95;8.57;;;;;;;7.55;94.08;98634.19;4992825;28;20022;-62
2022/04/01 11:38:18;;;;;;;12.55;8.35;;;;;;;7.39;93.39;98626.94;4994281;28;20077;-62